Time;durP1;ratioP1;P1;durP2;ratioP2;P2;SDS_P1;SDS_P2;PMS_P1;PMS_P2;Temp;Humidity;BMP_temperature;BMP_pressure;BME280_temperature;BME280_humidity;BME280_pressure;Samples;Min_cycle;Max_cycle;Signal;HPM_P1;HPM_P2
2023/09/29 00:02:10;;;;;;;4.78;4.32;;;18.60;99.90;;;;;;5052020;28;20048;-45
2023/09/29 00:04:36;;;;;;;9.55;5.20;;;18.60;99.90;;;;;;5051654;28;20033;-49
2023/09/29 00:07:03;;;;;;;5.90;4.85;;;18.60;99.90;;;;;;5051708;28;20509;-46
2023/09/29 00:09:28;;;;;;;10.73;6.32;;;18.50;99.90;;;;;;5052323;28;20082;-47
2023/09/29 00:11:55;;;;;;;6.95;5.65;;;18.50;99.90;;;;;;5051625;28;20103;-46
2023/09/29 00:14:20;;;;;;;6.05;4.78;;;18.40;99.90;;;;;;5051229;28;20013;-48
2023/09/29 00:16:46;;;;;;;8.90;5.32;;;18.40;99.90;;;;;;5049807;28;20056;-48
2023/09/29 00:19:12;;;;;;;5.95;4.80;;;18.40;99.90;;;;;;5051599;28;20052;-47
2023/09/29 00:21:37;;;;;;;8.35;5.60;;;18.40;99.90;;;;;;5050486;28;20040;-45
2023/09/29 00:24:04;;;;;;;5.88;4.60;;;18.40;99.90;;;;;;5051534;28;20040;-45
2023/09/29 00:26:29;;;;;;;8.63;5.00;;;18.40;99.90;;;;;;5051454;28;20115;-45
2023/09/29 00:28:56;;;;;;;11.70;4.63;;;18.30;99.90;;;;;;5051551;28;20429;-45
2023/09/29 00:31:21;;;;;;;9.85;5.10;;;18.30;99.90;;;;;;5051459;28;20031;-48
2023/09/29 00:33:47;;;;;;;9.95;5.38;;;18.40;99.90;;;;;;5051064;28;20025;-48
2023/09/29 00:36:12;;;;;;;6.88;4.95;;;18.30;99.90;;;;;;5050960;28;20562;-45
2023/09/29 00:38:38;;;;;;;11.98;4.88;;;18.30;99.90;;;;;;5051605;28;20036;-45
2023/09/29 00:41:04;;;;;;;8.93;5.20;;;18.30;99.90;;;;;;5051339;28;20028;-45
2023/09/29 00:43:29;;;;;;;6.32;4.95;;;18.30;99.90;;;;;;5051031;28;20029;-49
2023/09/29 00:45:55;;;;;;;8.10;5.28;;;18.30;99.90;;;;;;5051046;28;20094;-48
2023/09/29 00:48:22;;;;;;;11.00;6.03;;;18.30;99.90;;;;;;5051340;28;20028;-45
2023/09/29 00:50:48;;;;;;;7.25;5.57;;;18.30;99.90;;;;;;5051403;28;20024;-45
2023/09/29 00:53:17;;;;;;;8.70;5.10;;;18.30;99.90;;;;;;5051255;28;20024;-45
2023/09/29 00:55:45;;;;;;;6.22;4.75;;;18.30;99.90;;;;;;5050893;28;20492;-48
2023/09/29 00:58:12;;;;;;;7.43;4.93;;;18.30;99.90;;;;;;5051254;28;20021;-45
2023/09/29 01:00:40;;;;;;;7.22;5.30;;;18.20;99.90;;;;;;5051324;28;20021;-46
2023/09/29 01:03:12;;;;;;;8.30;6.40;;;18.10;99.90;;;;;;5051045;28;20028;-46
2023/09/29 01:05:44;;;;;;;10.18;6.40;;;18.10;99.90;;;;;;5050890;28;20350;-45
2023/09/29 01:08:19;;;;;;;10.70;6.70;;;18.10;99.90;;;;;;5051162;28;20028;-45
2023/09/29 01:10:45;;;;;;;10.63;7.03;;;18.10;99.90;;;;;;5051309;28;20100;-46
2023/09/29 01:13:11;;;;;;;10.70;6.72;;;18.10;99.90;;;;;;5049758;28;20112;-45
2023/09/29 01:15:37;;;;;;;12.27;6.30;;;18.10;99.90;;;;;;5050835;28;20029;-49
2023/09/29 01:18:03;;;;;;;69.70;52.10;;;18.10;99.90;;;;;;5051123;28;20106;-48
2023/09/29 01:20:30;;;;;;;177.55;112.35;;;18.10;99.90;;;;;;5051262;28;20075;-48
2023/09/29 01:23:07;;;;;;;16.67;11.68;;;18.10;99.90;;;;;;5050909;28;20032;-47
2023/09/29 01:25:33;;;;;;;10.80;5.75;;;18.10;99.90;;;;;;5050691;28;20450;-48
2023/09/29 01:27:59;;;;;;;5.22;4.70;;;18.10;99.90;;;;;;5050951;28;20554;-48
2023/09/29 01:30:27;;;;;;;14.38;5.38;;;18.10;99.90;;;;;;5053410;28;20072;-47
2023/09/29 01:32:56;;;;;;;7.00;5.07;;;18.00;99.90;;;;;;5054585;28;20028;-48
2023/09/29 01:35:23;;;;;;;6.65;5.00;;;18.00;99.90;;;;;;5054110;28;20032;-46
2023/09/29 01:37:50;;;;;;;8.48;5.30;;;18.00;99.90;;;;;;5054426;28;20017;-47
2023/09/29 01:40:17;;;;;;;6.13;4.75;;;18.00;99.90;;;;;;5054487;28;20392;-47
2023/09/29 01:42:44;;;;;;;6.05;5.15;;;17.90;99.90;;;;;;5054252;28;20021;-47
2023/09/29 01:45:11;;;;;;;6.70;5.53;;;17.90;99.90;;;;;;5054131;28;20060;-48
2023/09/29 01:47:38;;;;;;;7.45;5.20;;;17.80;99.90;;;;;;5054181;28;20036;-46
2023/09/29 01:50:05;;;;;;;9.52;5.82;;;17.70;99.90;;;;;;5054497;28;20111;-45
2023/09/29 01:52:31;;;;;;;5.93;5.05;;;17.70;99.90;;;;;;5054342;28;20024;-45
2023/09/29 01:54:56;;;;;;;9.68;5.45;;;17.60;99.90;;;;;;5054307;28;20017;-46
2023/09/29 01:57:22;;;;;;;9.15;5.05;;;17.50;99.90;;;;;;5052988;28;20035;-46
2023/09/29 01:59:48;;;;;;;7.00;5.88;;;17.50;99.90;;;;;;5054542;28;20029;-47
2023/09/29 02:02:14;;;;;;;8.18;6.00;;;17.50;99.90;;;;;;5054546;28;20391;-50
2023/09/29 02:04:40;;;;;;;10.02;5.97;;;17.40;99.90;;;;;;5052444;28;20025;-47
2023/09/29 02:07:05;;;;;;;8.80;5.65;;;17.30;99.90;;;;;;5054110;28;20083;-46
2023/09/29 02:09:31;;;;;;;7.93;5.15;;;17.30;99.90;;;;;;5053951;28;20032;-46
2023/09/29 02:11:56;;;;;;;10.32;5.88;;;17.30;99.90;;;;;;5054029;28;20373;-48
2023/09/29 02:14:23;;;;;;;11.20;5.45;;;17.30;99.90;;;;;;5053762;28;20028;-44
2023/09/29 02:16:48;;;;;;;9.77;5.50;;;17.30;99.90;;;;;;5054134;28;20036;-49
2023/09/29 02:19:16;;;;;;;7.38;6.03;;;17.20;99.90;;;;;;5053753;28;20025;-46
2023/09/29 02:21:43;;;;;;;7.88;5.75;;;17.10;99.90;;;;;;5053665;28;20055;-50
2023/09/29 02:24:08;;;;;;;6.55;5.10;;;17.10;99.90;;;;;;5053259;28;20032;-51
2023/09/29 02:26:34;;;;;;;8.38;5.88;;;17.10;99.90;;;;;;5053217;28;20029;-48
2023/09/29 02:29:04;;;;;;;9.88;5.38;;;17.10;99.90;;;;;;5052293;28;20013;-49
2023/09/29 02:31:30;;;;;;;8.00;5.85;;;17.10;99.90;;;;;;5053578;28;20032;-49
2023/09/29 02:33:55;;;;;;;9.95;6.75;;;17.10;99.90;;;;;;5053212;28;20508;-51
2023/09/29 02:36:21;;;;;;;8.48;5.75;;;17.10;99.90;;;;;;5051688;28;20025;-49
2023/09/29 02:38:47;;;;;;;15.23;6.45;;;17.20;99.90;;;;;;5053600;28;20227;-46
2023/09/29 02:41:13;;;;;;;9.35;6.25;;;17.20;99.90;;;;;;5053086;28;20029;-49
2023/09/29 02:43:38;;;;;;;6.45;5.07;;;17.20;99.90;;;;;;5053090;28;20035;-46
2023/09/29 02:46:04;;;;;;;8.80;4.95;;;17.30;99.90;;;;;;5053101;28;20051;-48
2023/09/29 02:48:30;;;;;;;7.93;5.75;;;17.30;99.90;;;;;;5053158;28;20484;-48
2023/09/29 02:50:56;;;;;;;9.25;6.25;;;17.30;99.90;;;;;;5053024;28;20021;-49
2023/09/29 02:53:21;;;;;;;10.88;5.88;;;17.20;99.90;;;;;;5053087;28;20446;-46
2023/09/29 02:55:47;;;;;;;6.65;5.30;;;17.30;99.90;;;;;;5052666;28;20021;-46
2023/09/29 02:58:13;;;;;;;8.60;5.88;;;17.30;99.90;;;;;;5052958;28;20021;-47
2023/09/29 03:00:41;;;;;;;10.30;6.85;;;17.30;99.90;;;;;;5052851;28;20025;-49
2023/09/29 03:03:09;;;;;;;11.77;6.47;;;17.30;99.90;;;;;;5052735;28;20020;-47
2023/09/29 03:05:35;;;;;;;12.07;6.85;;;17.30;99.90;;;;;;5052948;28;20023;-47
2023/09/29 03:08:01;;;;;;;9.88;5.85;;;17.30;99.90;;;;;;5052772;28;20029;-47
2023/09/29 03:10:28;;;;;;;7.43;6.20;;;17.30;99.90;;;;;;5052739;28;20104;-46
2023/09/29 03:12:57;;;;;;;7.93;6.43;;;17.30;99.90;;;;;;5052620;28;20500;-46
2023/09/29 03:15:23;;;;;;;11.23;7.70;;;17.40;99.90;;;;;;5052458;28;20024;-47
2023/09/29 03:17:50;;;;;;;13.15;7.82;;;17.40;99.90;;;;;;5052584;28;20120;-47
2023/09/29 03:20:16;;;;;;;13.38;7.85;;;17.40;99.90;;;;;;5052551;28;20063;-45
2023/09/29 03:22:45;;;;;;;16.13;7.57;;;17.50;99.90;;;;;;5051273;28;20433;-47
2023/09/29 03:25:16;;;;;;;12.32;6.93;;;17.50;99.90;;;;;;5052353;28;20025;-49
2023/09/29 03:27:42;;;;;;;12.55;8.65;;;17.50;99.90;;;;;;5052942;28;20412;-51
2023/09/29 03:30:10;;;;;;;14.80;8.63;;;17.50;99.90;;;;;;5052950;28;20071;-46
2023/09/29 03:32:35;;;;;;;16.50;10.25;;;17.60;99.90;;;;;;5052680;28;20028;-49
2023/09/29 03:35:01;;;;;;;15.88;9.73;;;17.60;99.90;;;;;;5052067;28;20013;-48
2023/09/29 03:37:29;;;;;;;16.15;8.63;;;17.70;99.90;;;;;;5052688;28;20581;-47
2023/09/29 03:39:56;;;;;;;12.75;8.18;;;17.70;99.90;;;;;;5052684;28;20029;-47
2023/09/29 03:42:22;;;;;;;12.68;8.32;;;17.70;99.90;;;;;;5052576;28;20491;-49
2023/09/29 03:44:47;;;;;;;18.05;9.20;;;17.70;99.90;;;;;;5052111;28;20102;-46
2023/09/29 03:47:13;;;;;;;11.55;8.13;;;17.60;99.90;;;;;;5050851;28;20083;-48
2023/09/29 03:49:38;;;;;;;12.93;9.82;;;17.50;99.90;;;;;;5052268;28;20072;-48
2023/09/29 03:52:08;;;;;;;16.67;9.98;;;17.50;99.90;;;;;;5051776;28;20051;-47
2023/09/29 03:54:34;;;;;;;17.48;9.68;;;17.50;99.90;;;;;;5052070;28;20302;-47
2023/09/29 03:57:03;;;;;;;20.17;9.30;;;17.50;99.90;;;;;;5050623;28;20025;-47
2023/09/29 03:59:29;;;;;;;13.77;9.65;;;17.60;99.90;;;;;;5052497;28;20029;-46
2023/09/29 04:01:55;;;;;;;26.27;9.05;;;17.60;99.90;;;;;;5052196;28;20399;-49
2023/09/29 04:04:20;;;;;;;14.32;9.70;;;17.50;99.90;;;;;;5051637;28;20082;-49
2023/09/29 04:06:46;;;;;;;12.93;10.48;;;17.50;99.90;;;;;;5051740;28;20060;-46
2023/09/29 04:09:11;;;;;;;14.05;8.10;;;17.60;99.90;;;;;;5051952;28;20013;-46
2023/09/29 04:11:40;;;;;;;9.93;7.07;;;17.50;99.90;;;;;;5051797;28;20396;-49
2023/09/29 04:14:05;;;;;;;12.82;7.68;;;17.60;99.90;;;;;;5051510;28;20067;-46
2023/09/29 04:16:31;;;;;;;19.65;9.38;;;17.60;99.90;;;;;;5051622;28;20048;-51
2023/09/29 04:18:56;;;;;;;12.95;8.30;;;17.60;99.90;;;;;;5051647;28;20519;-48
2023/09/29 04:21:22;;;;;;;13.40;8.55;;;17.70;99.90;;;;;;5051681;28;20092;-46
2023/09/29 04:23:47;;;;;;;14.32;9.32;;;17.70;99.90;;;;;;5051393;28;20036;-47
2023/09/29 04:26:21;;;;;;;15.70;8.77;;;17.60;99.90;;;;;;5050091;28;20033;-48
2023/09/29 04:28:48;;;;;;;15.73;8.85;;;17.60;99.90;;;;;;5052030;28;20017;-48
2023/09/29 04:31:14;;;;;;;14.82;8.70;;;17.60;99.90;;;;;;5052010;28;20028;-51
2023/09/29 04:33:40;;;;;;;12.65;9.23;;;17.60;99.90;;;;;;5051760;28;20022;-51
2023/09/29 04:36:06;;;;;;;14.82;9.82;;;17.60;99.90;;;;;;5050617;28;20126;-49
2023/09/29 04:38:32;;;;;;;11.43;8.38;;;17.60;99.90;;;;;;5051793;28;20021;-47
2023/09/29 04:40:58;;;;;;;13.07;8.70;;;17.50;99.90;;;;;;5051616;28;20452;-50
2023/09/29 04:43:24;;;;;;;16.98;9.20;;;17.50;99.90;;;;;;5051482;28;20096;-49
2023/09/29 04:45:49;;;;;;;13.50;10.13;;;17.50;99.90;;;;;;5051455;28;20345;-47
2023/09/29 04:48:15;;;;;;;17.17;9.93;;;17.50;99.90;;;;;;5051644;28;20079;-50
2023/09/29 04:50:40;;;;;;;16.27;10.32;;;17.50;99.90;;;;;;5051894;28;20017;-48
2023/09/29 04:53:06;;;;;;;11.25;10.02;;;17.50;99.90;;;;;;5051576;28;20381;-49
2023/09/29 04:55:31;;;;;;;12.82;9.70;;;17.50;99.90;;;;;;5051473;28;20071;-49
2023/09/29 04:57:57;;;;;;;13.27;9.23;;;17.50;99.90;;;;;;5051758;28;20117;-47
2023/09/29 05:00:23;;;;;;;16.00;8.93;;;17.50;99.90;;;;;;5051541;28;20388;-46
2023/09/29 05:02:48;;;;;;;12.98;9.25;;;17.40;99.90;;;;;;5051334;28;20381;-49
2023/09/29 05:05:14;;;;;;;22.23;8.93;;;17.40;99.90;;;;;;5054917;28;20112;-47
2023/09/29 05:07:40;;;;;;;13.00;9.68;;;17.40;99.90;;;;;;5054748;28;20064;-46
2023/09/29 05:10:06;;;;;;;10.60;9.23;;;17.40;99.90;;;;;;5055001;28;20554;-46
2023/09/29 05:12:33;;;;;;;16.33;9.35;;;17.40;99.90;;;;;;5054797;28;20021;-45
2023/09/29 05:14:58;;;;;;;11.85;8.38;;;17.40;99.90;;;;;;5054482;28;20100;-46
2023/09/29 05:17:24;;;;;;;14.07;8.63;;;17.40;99.90;;;;;;5054881;28;20503;-48
2023/09/29 05:19:49;;;;;;;11.65;8.15;;;17.40;99.90;;;;;;5054783;28;20040;-46
2023/09/29 05:22:15;;;;;;;11.35;7.80;;;17.40;99.90;;;;;;5053414;28;20040;-46
2023/09/29 05:24:40;;;;;;;9.45;7.25;;;17.50;99.90;;;;;;5054685;28;20372;-51
2023/09/29 05:27:06;;;;;;;11.80;7.28;;;17.50;99.90;;;;;;5054858;28;20044;-49
2023/09/29 05:29:32;;;;;;;9.73;7.72;;;17.50;99.90;;;;;;5054951;28;20024;-51
2023/09/29 05:31:57;;;;;;;9.65;7.05;;;17.50;99.90;;;;;;5054795;28;20049;-47
2023/09/29 05:34:23;;;;;;;8.63;6.05;;;17.60;99.90;;;;;;5052817;28;20061;-49
2023/09/29 05:36:49;;;;;;;10.68;6.85;;;17.50;99.90;;;;;;5054548;28;20076;-44
2023/09/29 05:39:14;;;;;;;10.13;8.20;;;17.50;99.90;;;;;;5053297;28;20025;-45
2023/09/29 05:41:40;;;;;;;11.93;7.97;;;17.50;99.90;;;;;;5054515;28;20484;-47
2023/09/29 05:44:06;;;;;;;13.40;8.05;;;17.50;99.90;;;;;;5054312;28;20040;-49
2023/09/29 05:46:31;;;;;;;11.38;8.10;;;17.50;99.90;;;;;;5053125;28;20025;-47
2023/09/29 05:48:57;;;;;;;14.95;9.55;;;17.50;99.90;;;;;;5054353;28;20048;-50
2023/09/29 05:51:22;;;;;;;13.15;9.05;;;17.40;99.90;;;;;;5053251;28;20059;-45
2023/09/29 05:53:48;;;;;;;12.38;8.35;;;17.50;99.90;;;;;;5053990;28;20163;-45
2023/09/29 05:56:14;;;;;;;10.43;7.68;;;17.40;99.90;;;;;;5054225;28;20115;-46
2023/09/29 05:58:40;;;;;;;9.05;6.75;;;17.40;99.90;;;;;;5054356;28;20459;-46
2023/09/29 06:01:13;;;;;;;25.70;8.30;;;17.40;99.90;;;;;;5054225;28;20060;-48
2023/09/29 06:03:40;;;;;;;11.98;8.77;;;17.50;99.90;;;;;;5052671;28;20120;-48
2023/09/29 06:06:07;;;;;;;13.45;8.95;;;17.50;99.90;;;;;;5054483;28;20044;-49
2023/09/29 06:08:32;;;;;;;11.93;8.30;;;17.50;99.90;;;;;;5054245;28;20135;-51
2023/09/29 06:10:58;;;;;;;13.35;8.40;;;17.50;99.90;;;;;;5054202;28;20028;-50
2023/09/29 06:13:23;;;;;;;8.30;7.50;;;17.50;99.90;;;;;;5053974;28;20112;-51
2023/09/29 06:15:49;;;;;;;13.02;9.07;;;17.50;99.90;;;;;;5052936;28;20499;-49
2023/09/29 06:18:15;;;;;;;12.55;8.52;;;17.50;99.90;;;;;;5053872;28;20040;-49
2023/09/29 06:20:40;;;;;;;13.73;9.45;;;17.50;99.90;;;;;;5054401;28;20033;-48
2023/09/29 06:23:06;;;;;;;10.20;7.78;;;17.50;99.90;;;;;;5053753;28;20037;-48
2023/09/29 06:25:33;;;;;;;12.32;7.50;;;17.60;99.90;;;;;;5053350;28;20037;-47
2023/09/29 06:27:59;;;;;;;9.60;7.43;;;17.70;99.90;;;;;;5053664;28;20025;-47
2023/09/29 06:30:24;;;;;;;9.25;7.35;;;17.70;99.90;;;;;;5053610;28;20031;-46
2023/09/29 06:32:50;;;;;;;10.10;6.95;;;17.80;99.90;;;;;;5053302;28;20036;-51
2023/09/29 06:35:16;;;;;;;9.00;6.93;;;17.90;99.90;;;;;;5053001;28;20028;-49
2023/09/29 06:37:42;;;;;;;13.35;7.80;;;18.00;99.90;;;;;;5053448;28;20108;-50
2023/09/29 06:40:11;;;;;;;16.90;7.97;;;18.10;99.90;;;;;;5052151;28;20037;-48
2023/09/29 06:42:37;;;;;;;16.35;8.60;;;18.30;99.90;;;;;;5053121;28;20036;-50
2023/09/29 06:45:04;;;;;;;14.95;7.32;;;18.40;99.90;;;;;;5052863;28;20033;-48
2023/09/29 06:47:30;;;;;;;12.90;7.00;;;18.60;99.90;;;;;;5053321;28;20028;-47
2023/09/29 06:49:55;;;;;;;10.48;7.18;;;18.70;99.90;;;;;;5053095;28;20025;-47
2023/09/29 06:52:21;;;;;;;13.50;7.88;;;18.90;99.90;;;;;;5052984;28;20370;-47
2023/09/29 06:54:47;;;;;;;12.70;7.55;;;19.00;99.90;;;;;;5052717;28;20040;-48
2023/09/29 06:57:12;;;;;;;12.70;8.60;;;19.30;99.90;;;;;;5052777;28;20518;-47
2023/09/29 06:59:37;;;;;;;10.35;7.22;;;19.60;99.90;;;;;;5053021;28;20033;-48
2023/09/29 07:02:03;;;;;;;15.27;8.00;;;20.40;99.90;;;;;;5053040;28;20033;-47
2023/09/29 07:04:28;;;;;;;15.50;7.25;;;20.90;99.90;;;;;;5052777;28;20033;-49
2023/09/29 07:06:54;;;;;;;11.57;7.25;;;20.80;99.90;;;;;;5052815;28;20032;-48
2023/09/29 07:09:20;;;;;;;13.85;7.00;;;20.70;99.90;;;;;;5053263;28;20029;-52
2023/09/29 07:11:45;;;;;;;9.27;6.97;;;20.40;99.90;;;;;;5053087;28;20485;-48
2023/09/29 07:14:11;;;;;;;30.85;9.23;;;20.20;99.90;;;;;;5053005;28;20029;-46
2023/09/29 07:16:38;;;;;;;9.27;6.82;;;19.90;99.90;;;;;;5052986;28;20032;-47
2023/09/29 07:19:04;;;;;;;9.27;7.18;;;19.80;99.90;;;;;;5052947;28;20507;-49
2023/09/29 07:21:29;;;;;;;11.27;7.18;;;19.80;99.90;;;;;;5053048;28;20025;-48
2023/09/29 07:23:56;;;;;;;8.48;6.63;;;19.60;99.90;;;;;;5052992;28;20157;-48
2023/09/29 07:26:22;;;;;;;11.05;6.97;;;19.50;99.90;;;;;;5052259;28;20025;-51
2023/09/29 07:28:48;;;;;;;8.95;7.25;;;19.60;99.90;;;;;;5052533;28;20025;-51
2023/09/29 07:31:13;;;;;;;7.75;6.20;;;19.70;99.90;;;;;;5052618;28;20021;-47
2023/09/29 07:33:39;;;;;;;8.00;6.55;;;19.90;99.90;;;;;;5052234;28;20036;-47
2023/09/29 07:36:05;;;;;;;7.88;5.97;;;20.00;99.90;;;;;;5052290;28;20024;-47
2023/09/29 07:38:31;;;;;;;10.77;6.60;;;20.00;99.90;;;;;;5052615;28;20024;-49
2023/09/29 07:40:56;;;;;;;8.98;6.60;;;20.00;99.90;;;;;;5052463;28;20029;-48
2023/09/29 07:43:22;;;;;;;13.38;6.05;;;20.00;99.90;;;;;;5052414;28;20088;-49
2023/09/29 07:45:47;;;;;;;10.55;6.05;;;19.90;99.90;;;;;;5052340;28;20067;-49
2023/09/29 07:48:14;;;;;;;13.95;5.97;;;19.90;99.90;;;;;;5052368;28;20028;-48
2023/09/29 07:50:39;;;;;;;11.30;5.45;;;19.80;99.90;;;;;;5052632;28;20021;-47
2023/09/29 07:53:05;;;;;;;7.35;5.47;;;19.70;99.90;;;;;;5052397;28;20132;-49
2023/09/29 07:55:31;;;;;;;18.80;6.28;;;19.60;99.90;;;;;;5052338;28;20480;-47
2023/09/29 07:57:57;;;;;;;10.18;6.25;;;19.50;99.90;;;;;;5052625;28;20036;-49
2023/09/29 08:00:23;;;;;;;8.20;6.13;;;19.50;99.90;;;;;;5052428;28;20107;-46
2023/09/29 08:02:48;;;;;;;8.57;5.70;;;19.50;99.90;;;;;;5052462;28;20056;-46
2023/09/29 08:05:14;;;;;;;12.38;6.30;;;19.60;99.90;;;;;;5051962;28;20040;-47
2023/09/29 08:07:40;;;;;;;8.20;5.80;;;19.70;99.90;;;;;;5052037;28;20511;-45
2023/09/29 08:10:07;;;;;;;11.95;5.63;;;19.80;99.90;;;;;;5052025;28;20033;-47
2023/09/29 08:12:32;;;;;;;11.57;6.75;;;20.10;99.90;;;;;;5052430;28;20028;-47
2023/09/29 08:15:02;;;;;;;9.02;5.78;;;20.30;99.90;;;;;;5052596;28;20017;-46
2023/09/29 08:17:27;;;;;;;14.60;5.88;;;20.40;99.90;;;;;;5052854;28;20115;-47
2023/09/29 08:19:53;;;;;;;11.30;6.05;;;20.50;99.90;;;;;;5052670;28;20116;-49
2023/09/29 08:22:19;;;;;;;13.63;6.22;;;20.60;99.90;;;;;;5052499;28;20033;-46
2023/09/29 08:24:44;;;;;;;10.38;5.72;;;20.80;99.90;;;;;;5051686;28;20024;-46
2023/09/29 08:27:10;;;;;;;8.68;6.00;;;20.80;99.90;;;;;;5052244;28;20055;-47
2023/09/29 08:29:35;;;;;;;12.45;5.90;;;20.80;99.90;;;;;;5051920;28;20123;-49
2023/09/29 08:32:01;;;;;;;7.20;5.30;;;20.80;99.90;;;;;;5051446;28;20033;-47
2023/09/29 08:34:30;;;;;;;10.02;5.47;;;20.90;99.90;;;;;;5050917;28;20029;-46
2023/09/29 08:36:55;;;;;;;10.13;5.70;;;21.00;99.90;;;;;;5051599;28;20516;-47
2023/09/29 08:39:21;;;;;;;11.45;5.47;;;21.20;99.90;;;;;;5051648;28;20032;-48
2023/09/29 08:41:58;;;;;;;6.40;5.50;;;21.30;99.90;;;;;;5051768;28;20100;-50
2023/09/29 08:44:27;;;;;;;9.50;5.28;;;21.50;99.90;;;;;;5051912;28;20017;-45
2023/09/29 08:46:53;;;;;;;14.00;6.18;;;21.60;99.90;;;;;;5051623;28;20022;-50
2023/09/29 08:49:20;;;;;;;10.35;5.50;;;21.60;99.90;;;;;;5051737;28;20025;-46
2023/09/29 08:51:47;;;;;;;15.52;5.88;;;21.60;99.90;;;;;;5051656;28;20510;-46
2023/09/29 08:54:17;;;;;;;12.38;5.95;;;21.60;99.90;;;;;;5051253;28;20036;-51
2023/09/29 08:56:44;;;;;;;8.80;6.22;;;21.60;99.90;;;;;;5051661;28;20492;-47
2023/09/29 08:59:10;;;;;;;6.07;4.57;;;22.00;99.90;;;;;;5051698;28;20040;-49
2023/09/29 09:01:35;;;;;;;13.35;5.57;;;22.50;99.90;;;;;;5051600;28;20433;-49
2023/09/29 09:04:01;;;;;;;10.93;4.78;;;23.40;99.90;;;;;;5051083;28;20029;-48
2023/09/29 09:06:26;;;;;;;6.57;4.97;;;24.70;99.90;;;;;;5051032;28;20118;-50
2023/09/29 09:08:54;;;;;;;5.88;5.05;;;25.60;99.90;;;;;;5051448;28;20021;-48
2023/09/29 09:11:19;;;;;;;5.53;4.82;;;26.30;99.90;;;;;;5051248;28;20287;-47
2023/09/29 09:14:07;;;;;;;9.02;5.53;;;26.50;99.90;;;;;;5050609;28;20025;-48
2023/09/29 09:16:32;;;;;;;7.32;4.68;;;26.10;99.90;;;;;;5051164;28;20074;-46
2023/09/29 09:19:14;;;;;;;12.45;4.93;;;26.00;99.90;;;;;;5051200;28;20025;-47
2023/09/29 09:21:42;;;;;;;13.30;5.00;;;25.60;99.90;;;;;;5051371;28;20029;-48
2023/09/29 09:24:21;;;;;;;8.00;4.80;;;25.50;99.90;;;;;;5050903;28;20029;-50
2023/09/29 09:26:47;;;;;;;12.15;4.55;;;26.10;99.90;;;;;;5050764;28;20107;-50
2023/09/29 09:29:16;;;;;;;5.47;4.13;;;27.00;99.90;;;;;;5051173;28;20540;-50
2023/09/29 09:31:55;;;;;;;8.93;4.75;;;27.70;99.90;;;;;;5051250;28;20385;-48
2023/09/29 09:34:33;;;;;;;6.40;4.10;;;28.30;99.90;;;;;;5050567;28;20492;-48
2023/09/29 09:36:59;;;;;;;6.38;4.18;;;27.90;99.50;;;;;;5050723;28;20029;-46
2023/09/29 09:39:27;;;;;;;6.10;4.72;;;27.70;99.70;;;;;;5051127;28;20027;-48
2023/09/29 09:41:55;;;;;;;8.70;4.45;;;27.10;99.90;;;;;;5050872;28;20097;-49
2023/09/29 09:44:21;;;;;;;9.20;3.95;;;26.60;99.90;;;;;;5050615;28;20522;-51
2023/09/29 09:46:57;;;;;;;6.40;4.10;;;26.30;99.90;;;;;;5050956;28;20078;-47
2023/09/29 09:49:25;;;;;;;11.07;3.92;;;26.00;99.90;;;;;;5051224;28;20065;-47
2023/09/29 09:51:52;;;;;;;6.47;3.88;;;26.10;99.90;;;;;;5054195;28;20017;-50
2023/09/29 09:54:28;;;;;;;5.18;3.53;;;26.20;99.90;;;;;;5053880;28;20021;-47
2023/09/29 09:57:09;;;;;;;8.27;4.57;;;26.50;99.90;;;;;;5054171;28;20060;-45
2023/09/29 09:59:39;;;;;;;10.00;4.15;;;26.50;99.90;;;;;;5054337;28;20033;-46
2023/09/29 10:02:07;;;;;;;5.32;4.10;;;26.70;99.90;;;;;;5054038;28;20060;-47
2023/09/29 10:04:35;;;;;;;9.27;4.45;;;26.70;99.90;;;;;;5052642;28;20021;-47
2023/09/29 10:07:01;;;;;;;8.63;4.50;;;26.70;99.90;;;;;;5054244;28;20025;-48
2023/09/29 10:09:27;;;;;;;12.45;4.10;;;26.70;99.90;;;;;;5054140;28;20026;-48
2023/09/29 10:11:59;;;;;;;9.27;4.28;;;26.50;99.90;;;;;;5054176;28;20021;-48
2023/09/29 10:14:25;;;;;;;4.03;3.45;;;26.60;99.90;;;;;;5053830;28;20078;-47
2023/09/29 10:17:05;;;;;;;13.52;4.05;;;26.70;99.90;;;;;;5053643;28;20025;-46
2023/09/29 10:19:37;;;;;;;6.72;3.85;;;26.70;99.90;;;;;;5053801;28;20040;-50
2023/09/29 10:22:04;;;;;;;12.18;4.30;;;26.80;99.90;;;;;;5053670;28;20486;-49
2023/09/29 10:24:30;;;;;;;9.20;4.20;;;26.90;99.90;;;;;;5053534;28;20388;-46
2023/09/29 10:27:02;;;;;;;7.57;4.00;;;27.00;99.90;;;;;;5054095;28;20033;-47
2023/09/29 10:29:30;;;;;;;9.95;3.92;;;26.90;99.90;;;;;;5054168;28;20017;-46
2023/09/29 10:32:13;;;;;;;7.63;3.88;;;26.80;99.90;;;;;;5052580;28;20028;-48
2023/09/29 10:34:40;;;;;;;8.10;4.22;;;26.90;99.90;;;;;;5053061;28;20017;-47
2023/09/29 10:37:06;;;;;;;5.13;3.67;;;26.80;99.90;;;;;;5053554;28;20291;-50
2023/09/29 10:39:32;;;;;;;5.35;3.95;;;26.50;99.90;;;;;;5054038;28;20029;-49
2023/09/29 10:42:04;;;;;;;9.00;3.88;;;26.20;99.90;;;;;;5052604;28;20489;-47
2023/09/29 10:44:29;;;;;;;6.00;3.80;;;25.70;99.90;;;;;;5053491;28;20059;-50
2023/09/29 10:46:55;;;;;;;6.97;3.58;;;25.50;99.90;;;;;;5053529;28;20073;-48
2023/09/29 10:49:30;;;;;;;9.95;3.60;;;25.30;99.90;;;;;;5053528;28;20508;-45
2023/09/29 10:51:57;;;;;;;4.47;4.07;;;25.10;99.90;;;;;;5054269;28;20378;-45
2023/09/29 10:54:23;;;;;;;7.68;4.40;;;25.10;99.90;;;;;;5052999;28;20025;-47
2023/09/29 10:56:49;;;;;;;4.68;3.75;;;25.10;99.90;;;;;;5053339;28;20041;-45
2023/09/29 10:59:15;;;;;;;8.35;3.90;;;25.00;99.90;;;;;;5053362;28;20443;-50
2023/09/29 11:01:41;;;;;;;9.40;4.18;;;25.20;99.90;;;;;;5053635;28;20032;-48
2023/09/29 11:04:09;;;;;;;7.00;3.35;;;25.10;99.90;;;;;;5053325;28;20457;-48
2023/09/29 11:06:45;;;;;;;7.15;4.10;;;25.10;99.90;;;;;;5053068;28;20074;-46
2023/09/29 11:09:16;;;;;;;3.95;3.35;;;25.30;99.90;;;;;;5053240;28;20017;-45
2023/09/29 11:11:41;;;;;;;4.15;3.58;;;25.40;99.90;;;;;;5053461;28;20024;-46
2023/09/29 11:14:07;;;;;;;8.30;3.97;;;25.50;99.90;;;;;;5053142;28;20021;-46
2023/09/29 11:16:33;;;;;;;11.80;3.70;;;25.60;99.90;;;;;;5052741;28;20354;-46
2023/09/29 11:19:12;;;;;;;4.35;3.50;;;25.60;99.90;;;;;;5052670;28;20068;-47
2023/09/29 11:21:39;;;;;;;8.35;3.33;;;25.70;99.90;;;;;;5052852;28;20502;-48
2023/09/29 11:24:09;;;;;;;5.47;3.00;;;25.70;99.90;;;;;;5052749;28;20037;-48
2023/09/29 11:26:38;;;;;;;6.20;3.00;;;25.70;99.90;;;;;;5051002;28;20496;-47
2023/09/29 11:29:04;;;;;;;7.63;2.75;;;25.70;99.90;;;;;;5052498;28;20507;-47
2023/09/29 11:31:30;;;;;;;5.70;3.17;;;25.70;99.90;;;;;;5052554;28;20096;-47
2023/09/29 11:33:56;;;;;;;5.65;2.85;;;25.90;99.90;;;;;;5052371;28;20025;-46
2023/09/29 11:36:23;;;;;;;6.93;2.78;;;26.00;99.90;;;;;;5051943;28;20022;-46
2023/09/29 11:38:50;;;;;;;4.00;2.50;;;26.20;99.90;;;;;;5052230;28;20396;-48
2023/09/29 11:41:17;;;;;;;6.53;2.85;;;26.30;99.90;;;;;;5052270;28;20147;-48
2023/09/29 11:43:44;;;;;;;7.03;3.13;;;26.50;99.90;;;;;;5052011;28;20415;-47
2023/09/29 11:46:09;;;;;;;9.30;2.80;;;26.50;99.90;;;;;;5052438;28;20075;-47
2023/09/29 11:48:35;;;;;;;11.55;2.72;;;26.50;99.90;;;;;;5051865;28;20480;-46
2023/09/29 11:51:01;;;;;;;6.63;2.28;;;26.40;99.90;;;;;;5050677;28;20017;-47
2023/09/29 11:53:27;;;;;;;5.13;2.80;;;26.30;99.90;;;;;;5051758;28;20105;-48
2023/09/29 11:55:54;;;;;;;9.90;2.47;;;26.20;99.90;;;;;;5051724;28;20021;-47
2023/09/29 11:58:20;;;;;;;4.97;2.53;;;26.20;99.90;;;;;;5052279;28;20025;-49
2023/09/29 12:00:47;;;;;;;4.05;3.20;;;26.10;99.90;;;;;;5051591;28;20086;-50
2023/09/29 12:03:12;;;;;;;10.30;5.07;;;26.00;99.90;;;;;;5051754;28;20404;-47
2023/09/29 12:05:40;;;;;;;7.10;3.67;;;26.00;99.90;;;;;;5051367;28;20028;-47
2023/09/29 12:08:06;;;;;;;9.80;3.50;;;25.90;99.90;;;;;;5051392;28;20051;-47
2023/09/29 12:10:32;;;;;;;2.65;2.03;;;26.00;99.90;;;;;;5050409;28;20029;-51
2023/09/29 12:12:59;;;;;;;4.90;2.40;;;26.00;99.90;;;;;;5050703;28;20017;-47
2023/09/29 12:15:25;;;;;;;2.30;2.10;;;26.00;99.90;;;;;;5051167;28;20411;-46
2023/09/29 12:17:51;;;;;;;5.18;2.63;;;26.00;99.90;;;;;;5051528;28;20032;-50
2023/09/29 12:20:18;;;;;;;3.65;2.53;;;26.00;99.90;;;;;;5051439;28;20451;-47
2023/09/29 12:22:45;;;;;;;7.13;2.80;;;26.00;99.90;;;;;;5051288;28;20096;-47
2023/09/29 12:25:14;;;;;;;3.70;2.03;;;25.80;99.90;;;;;;5051041;28;20524;-47
2023/09/29 12:27:42;;;;;;;5.00;2.60;;;25.70;99.90;;;;;;5051145;28;20039;-51
2023/09/29 12:30:09;;;;;;;4.05;2.30;;;25.60;99.90;;;;;;5051257;28;20024;-47
2023/09/29 12:32:37;;;;;;;5.40;2.45;;;25.60;99.90;;;;;;5050989;28;20025;-51
2023/09/29 12:35:04;;;;;;;6.97;2.85;;;25.50;99.90;;;;;;5050938;28;20023;-52
2023/09/29 12:37:30;;;;;;;3.33;2.17;;;25.40;99.90;;;;;;5051193;28;20520;-48
2023/09/29 12:39:56;;;;;;;2.58;2.13;;;25.20;99.90;;;;;;5051274;28;20036;-47